Mc Pherson, Kansas
Current Conditions -  °F | °C
As of 12:52 PM on Tuesday 21 Oct 2014 (Local Time) from KHUT Reporting Station
Broken Clouds Broken Clouds  
Wind Chill: 78°   Ceiling: 7000
Heat Index: 79°   Visibility: 10mi
Dew Point: 56°   Wind: 15mph
Humidity: 46%   Direction: 150°SSE
Pressure: 30.08"   Gusts: NA
Location:  38.4089°N, 97.6556°W
Report Text: KHUT 211752Z 15013KT 10SM BKN070 26/13 A3008 RMK AO2 SLP171 T02560133 10256 20089 58012
Loading
Personal Weather Stations






























Interactive Weather Map
Tropical Storm Tracking
New forecast layout! Learn more

10-Day Weather Forecast

Advertisements
Track Severe Weather on mobile